createdAt,value
2023-02-03T00:02:14.808Z,7.52
2023-02-03T00:05:03.313Z,7.55
2023-02-03T00:07:52.109Z,7.57
2023-02-03T00:10:41.224Z,7.54
2023-02-03T00:13:29.879Z,7.54
2023-02-03T00:16:19.768Z,7.57
2023-02-03T00:19:08.272Z,7.52
2023-02-03T00:21:57.106Z,7.54
2023-02-03T00:24:45.623Z,7.60
2023-02-03T00:27:34.478Z,7.47
2023-02-03T00:30:22.969Z,7.50
2023-02-03T00:33:12.807Z,7.57
2023-02-03T00:36:06.052Z,7.59
2023-02-03T00:38:55.079Z,7.56
2023-02-03T00:41:43.713Z,7.56
2023-02-03T00:44:32.179Z,7.54
2023-02-03T00:47:20.685Z,7.49
2023-02-03T00:50:11.877Z,7.42
2023-02-03T00:53:00.328Z,7.45
2023-02-03T00:55:48.806Z,7.47
2023-02-03T00:58:37.251Z,7.49
2023-02-03T01:01:25.819Z,7.50
2023-02-03T01:04:14.395Z,7.51
2023-02-03T01:07:04.576Z,7.51
2023-02-03T01:09:53.015Z,7.44
2023-02-03T01:12:41.439Z,7.45
2023-02-03T01:15:30.038Z,7.41
2023-02-03T01:18:18.771Z,7.39
2023-02-03T01:21:08.768Z,7.48
2023-02-03T01:23:59.928Z,6.98
2023-02-03T01:26:48.451Z,7.40
2023-02-03T01:29:36.926Z,7.42
2023-02-03T01:32:25.393Z,7.42
2023-02-03T01:35:13.910Z,7.44
2023-02-03T01:38:02.370Z,7.41
2023-02-03T01:40:52.215Z,7.42
2023-02-03T01:43:42.787Z,7.21
2023-02-03T01:46:33.993Z,7.33
2023-02-03T01:49:26.432Z,7.30
2023-02-03T01:52:14.932Z,7.38
2023-02-03T01:55:05.896Z,7.37
2023-02-03T01:57:58.983Z,7.31
2023-02-03T02:00:48.621Z,7.29
2023-02-03T02:03:41.020Z,7.31
2023-02-03T02:06:29.646Z,7.21
2023-02-03T02:09:18.323Z,7.24
2023-02-03T02:12:07.092Z,7.28
2023-02-03T02:14:57.220Z,7.22
2023-02-03T02:18:08.416Z,7.21
2023-02-03T02:21:36.757Z,7.17
2023-02-03T02:25:03.702Z,7.12
2023-02-03T02:28:15.138Z,7.11
2023-02-03T02:31:53.369Z,7.01
2023-02-03T02:34:50.647Z,7.10
2023-02-03T02:37:48.721Z,7.02
2023-02-03T02:40:41.133Z,7.06
2023-02-03T02:43:33.423Z,7.06
2023-02-03T02:46:26.625Z,7.07
2023-02-03T02:49:17.850Z,6.76
2023-02-03T02:52:09.543Z,7.04
2023-02-03T02:55:02.716Z,7.11
2023-02-03T02:57:52.640Z,7.13
2023-02-03T03:00:41.935Z,7.11
2023-02-03T03:03:30.637Z,7.11
2023-02-03T03:06:22.047Z,7.15
2023-02-03T03:09:13.855Z,7.08
2023-02-03T03:12:07.062Z,7.13
2023-02-03T03:14:58.764Z,7.21
2023-02-03T03:17:49.719Z,7.12
2023-02-03T03:20:40.453Z,7.17
2023-02-03T03:23:31.746Z,7.15
2023-02-03T03:26:27.882Z,7.21
2023-02-03T03:29:19.485Z,7.11
2023-02-03T03:32:08.090Z,7.14
2023-02-03T03:34:57.126Z,7.14
2023-02-03T03:37:47.415Z,7.11
2023-02-03T03:40:39.493Z,7.13
2023-02-03T03:43:31.459Z,7.15
2023-02-03T03:46:22.869Z,7.15
2023-02-03T03:49:12.039Z,7.16
2023-02-03T03:52:04.006Z,7.22
2023-02-03T03:54:53.829Z,7.20
2023-02-03T03:57:44.922Z,7.26
2023-02-03T04:00:37.166Z,7.12
2023-02-03T04:03:29.745Z,7.31
2023-02-03T04:06:18.245Z,7.28
2023-02-03T04:09:07.035Z,7.28
2023-02-03T04:12:06.020Z,7.30
2023-02-03T04:14:54.549Z,7.31
2023-02-03T04:17:44.357Z,7.30
2023-02-03T04:20:33.495Z,7.32
2023-02-03T04:23:22.024Z,7.31
2023-02-03T04:26:10.495Z,7.34
2023-02-03T04:28:59.027Z,7.27
2023-02-03T04:31:47.569Z,7.27
2023-02-03T04:34:37.546Z,7.16
2023-02-03T04:37:26.783Z,7.12
2023-02-03T04:40:15.375Z,7.16
2023-02-03T04:43:07.711Z,7.08
2023-02-03T04:45:56.371Z,7.10
2023-02-03T04:48:44.841Z,7.02
2023-02-03T04:51:34.636Z,7.13
2023-02-03T04:54:23.164Z,7.15
2023-02-03T04:57:11.645Z,7.09
2023-02-03T05:00:00.173Z,7.15
2023-02-03T05:02:48.705Z,7.18
2023-02-03T05:05:37.197Z,7.25
2023-02-03T05:08:26.999Z,7.24
2023-02-03T05:11:15.453Z,7.25
2023-02-03T05:14:04.043Z,7.24
2023-02-03T05:16:52.559Z,7.20
2023-02-03T05:19:41.068Z,7.14
2023-02-03T05:22:29.575Z,6.35
2023-02-03T05:25:19.754Z,7.09
2023-02-03T05:28:08.283Z,7.11
2023-02-03T05:30:59.216Z,7.12
2023-02-03T05:33:47.777Z,7.22
2023-02-03T05:36:36.317Z,7.28
2023-02-03T05:39:24.966Z,6.87
2023-02-03T05:42:13.787Z,7.30
2023-02-03T05:45:02.273Z,7.29
2023-02-03T05:47:50.701Z,7.26
2023-02-03T05:50:39.499Z,7.41
2023-02-03T05:53:28.432Z,7.43
2023-02-03T05:56:16.914Z,7.27
2023-02-03T05:59:07.149Z,7.13
2023-02-03T06:01:55.604Z,7.41
2023-02-03T06:04:44.093Z,7.44
2023-02-03T06:07:32.610Z,7.44
2023-02-03T06:10:21.084Z,7.23
2023-02-03T06:13:11.463Z,7.26
2023-02-03T06:16:01.372Z,7.41
2023-02-03T06:18:49.836Z,7.43
2023-02-03T06:21:38.298Z,7.43
2023-02-03T06:24:26.800Z,7.39
2023-02-03T06:27:15.359Z,7.22
2023-02-03T06:30:04.594Z,7.14
2023-02-03T06:32:56.110Z,7.31
2023-02-03T06:35:44.612Z,7.27
2023-02-03T06:38:33.079Z,7.29
2023-02-03T06:41:27.359Z,7.20
2023-02-03T06:44:15.843Z,7.08
2023-02-03T06:47:04.281Z,7.05
2023-02-03T06:49:54.238Z,6.87
2023-02-03T06:52:42.770Z,7.04
2023-02-03T06:55:31.287Z,7.05
2023-02-03T06:58:19.777Z,7.02
2023-02-03T07:01:08.273Z,7.02
2023-02-03T07:03:57.920Z,6.97
2023-02-03T07:06:47.787Z,6.91
2023-02-03T07:09:36.264Z,6.93
2023-02-03T07:12:24.793Z,6.87
2023-02-03T07:15:13.441Z,6.89
2023-02-03T07:18:01.936Z,6.93
2023-02-03T07:20:50.409Z,6.85
2023-02-03T07:23:40.225Z,6.89
2023-02-03T07:26:28.799Z,6.93
2023-02-03T07:29:17.243Z,6.95
2023-02-03T07:32:06.046Z,7.00
2023-02-03T07:34:54.540Z,6.93
2023-02-03T07:37:43.203Z,7.03
2023-02-03T07:40:33.063Z,6.97
2023-02-03T07:43:21.809Z,7.01
2023-02-03T07:46:10.333Z,7.00
2023-02-03T07:48:58.884Z,7.01
2023-02-03T07:51:47.431Z,6.99
2023-02-03T07:54:35.882Z,7.03
2023-02-03T07:57:25.733Z,7.15
2023-02-03T08:00:15.715Z,7.22
2023-02-03T08:03:04.316Z,7.13
2023-02-03T08:05:53.484Z,7.18
2023-02-03T08:08:42.210Z,6.93
2023-02-03T08:11:32.554Z,7.18
2023-02-03T08:14:22.375Z,7.54
2023-02-03T08:17:10.836Z,7.67
2023-02-03T08:19:59.362Z,7.54
2023-02-03T08:22:47.900Z,7.63
2023-02-03T08:25:36.382Z,7.82
2023-02-03T08:28:24.965Z,7.73
2023-02-03T08:31:14.940Z,7.60
2023-02-03T08:34:03.523Z,7.71
2023-02-03T08:36:52.013Z,7.70
2023-02-03T08:39:40.696Z,7.69
2023-02-03T08:42:29.222Z,7.75
2023-02-03T08:45:17.664Z,7.68
2023-02-03T08:48:07.708Z,7.67
2023-02-03T08:50:56.189Z,7.60
2023-02-03T08:53:44.812Z,7.46
2023-02-03T08:56:34.106Z,7.39
2023-02-03T08:59:23.058Z,7.38
2023-02-03T09:02:15.820Z,7.51
2023-02-03T09:05:06.246Z,7.48
2023-02-03T09:07:54.795Z,7.44
2023-02-03T09:10:43.335Z,7.51
2023-02-03T09:13:31.855Z,7.46
2023-02-03T09:16:21.669Z,7.50
2023-02-03T09:19:10.480Z,7.52
2023-02-03T09:22:00.392Z,7.54
2023-02-03T09:24:50.622Z,7.56
2023-02-03T09:27:39.144Z,7.55
2023-02-03T09:30:28.937Z,7.55
2023-02-03T09:33:17.566Z,7.63
2023-02-03T09:36:07.575Z,7.70
2023-02-03T09:38:57.866Z,7.70
2023-02-03T09:42:28.593Z,7.62
2023-02-03T09:45:22.644Z,7.49
2023-02-03T09:48:17.052Z,7.40
2023-02-03T09:51:06.256Z,7.35
2023-02-03T09:53:59.841Z,7.39
2023-02-03T09:56:52.364Z,7.52
2023-02-03T09:59:41.209Z,7.48
2023-02-03T10:02:47.565Z,7.57
2023-02-03T10:05:57.591Z,7.61
2023-02-03T10:09:12.520Z,7.63
2023-02-03T10:12:16.417Z,7.66
2023-02-03T10:15:20.482Z,7.68
2023-02-03T10:18:11.541Z,7.65
2023-02-03T10:21:04.099Z,7.72
2023-02-03T10:23:55.043Z,7.68
2023-02-03T10:26:44.921Z,7.75
2023-02-03T10:29:38.690Z,7.72
2023-02-03T10:32:28.556Z,7.39
2023-02-03T10:35:17.168Z,7.71
2023-02-03T10:38:06.880Z,7.75
2023-02-03T10:40:55.473Z,7.80
2023-02-03T10:43:52.590Z,7.82
2023-02-03T10:46:43.164Z,7.83
2023-02-03T10:49:31.735Z,7.85
2023-02-03T10:52:28.968Z,7.82
2023-02-03T10:55:31.881Z,7.83
2023-02-03T10:58:24.935Z,7.16
2023-02-03T11:01:17.111Z,7.88
2023-02-03T11:04:07.548Z,7.90
2023-02-03T11:06:57.889Z,7.89
2023-02-03T11:09:46.387Z,7.93
2023-02-03T11:12:34.925Z,7.97
2023-02-03T11:15:23.433Z,7.91
2023-02-03T11:21:14.396Z,7.97
2023-02-03T11:24:06.221Z,7.95
2023-02-03T11:26:56.936Z,7.99
2023-02-03T11:29:47.544Z,8.03
2023-02-03T11:32:37.822Z,7.99
2023-02-03T11:35:27.576Z,7.99
2023-02-03T11:38:30.797Z,8.14
2023-02-03T11:41:23.887Z,8.08
2023-02-03T11:44:16.362Z,7.75
2023-02-03T11:47:09.146Z,8.06
2023-02-03T11:50:17.274Z,8.15
2023-02-03T11:53:23.034Z,8.30
2023-02-03T11:56:28.145Z,8.42
2023-02-03T11:59:27.644Z,8.47
2023-02-03T12:02:53.026Z,8.53
2023-02-03T12:05:48.139Z,8.58
2023-02-03T12:08:48.368Z,8.58
2023-02-03T12:11:50.071Z,8.49
2023-02-03T12:14:48.954Z,8.39
2023-02-03T12:17:51.836Z,8.32
2023-02-03T12:20:59.447Z,8.30
2023-02-03T12:23:56.237Z,8.37
2023-02-03T12:26:51.595Z,8.33
2023-02-03T12:29:43.987Z,8.43
2023-02-03T12:32:36.333Z,8.42
2023-02-03T12:35:27.947Z,8.43
2023-02-03T12:38:21.419Z,8.43
2023-02-03T12:41:13.919Z,8.62
2023-02-03T12:44:07.602Z,8.77
2023-02-03T12:47:02.644Z,8.87
2023-02-03T12:49:54.823Z,8.90
2023-02-03T12:52:46.224Z,9.00
2023-02-03T12:55:37.953Z,8.99
2023-02-03T12:58:28.558Z,8.77
2023-02-03T13:01:23.378Z,8.97
2023-02-03T14:49:08.569Z,8.50
2023-02-03T14:52:15.874Z,8.69
2023-02-03T14:55:16.619Z,8.76
2023-02-03T14:58:07.531Z,8.80
2023-02-03T15:00:56.496Z,8.85
2023-02-03T15:04:24.937Z,8.88
2023-02-03T15:07:38.724Z,8.89
2023-02-03T15:10:31.398Z,8.91
2023-02-03T15:13:26.587Z,8.91
2023-02-03T15:16:20.415Z,8.89
2023-02-03T15:19:17.431Z,8.87
2023-02-03T15:22:20.353Z,8.87
2023-02-03T15:25:18.119Z,8.93
2023-02-03T15:28:16.444Z,8.88
2023-02-03T15:31:08.939Z,8.79
2023-02-03T15:34:00.385Z,8.87
2023-02-03T15:36:50.901Z,8.87
2023-02-03T15:39:47.416Z,8.92
2023-02-03T15:42:39.039Z,8.88
2023-02-03T15:45:30.500Z,8.88
2023-02-03T15:48:29.717Z,8.82
2023-02-03T15:51:20.341Z,8.83
2023-02-03T15:54:14.024Z,8.81
2023-02-03T15:57:06.622Z,8.61
2023-02-03T15:59:57.087Z,8.79
2023-02-03T16:02:46.492Z,8.79
2023-02-03T16:05:37.028Z,8.72
2023-02-03T16:08:33.832Z,7.87
2023-02-03T16:11:34.289Z,8.54
2023-02-03T16:14:37.575Z,8.48
2023-02-03T16:17:29.389Z,8.51
2023-02-03T16:20:29.281Z,8.46
2023-02-03T16:23:20.179Z,8.45
2023-02-03T16:26:18.938Z,8.47
2023-02-03T16:29:30.699Z,8.51
2023-02-03T16:32:39.130Z,8.55
2023-02-03T16:35:45.278Z,8.58
2023-02-03T16:38:51.244Z,8.51
2023-02-03T16:41:57.198Z,8.53
2023-02-03T16:45:03.789Z,8.56
2023-02-03T16:48:11.295Z,8.59
2023-02-03T16:51:05.190Z,8.59
2023-02-03T16:53:53.716Z,8.61
2023-02-03T16:56:42.644Z,8.60
2023-02-03T16:59:31.225Z,8.57
2023-02-03T17:02:19.843Z,8.65
2023-02-03T17:05:09.759Z,8.59
2023-02-03T17:07:58.304Z,8.61
2023-02-03T17:10:49.339Z,8.64
2023-02-03T17:13:39.108Z,8.62
2023-02-03T17:16:28.795Z,8.61
2023-02-03T17:19:17.306Z,8.63
2023-02-03T17:22:07.609Z,8.59
2023-02-03T17:24:56.038Z,8.59
2023-02-03T17:27:44.621Z,8.64
2023-02-03T17:30:35.251Z,8.02
2023-02-03T17:33:23.893Z,8.51
2023-02-03T17:36:13.712Z,8.62
2023-02-03T17:54:37.121Z,8.01
2023-02-03T17:57:25.599Z,8.61
2023-02-03T18:00:14.791Z,8.60
2023-02-03T18:03:03.378Z,8.68
2023-02-03T18:05:51.966Z,8.70
2023-02-03T18:08:40.773Z,8.73
2023-02-03T18:11:32.490Z,8.75
2023-02-03T18:14:20.907Z,8.71
2023-02-03T18:17:09.723Z,8.72
2023-02-03T18:20:00.459Z,8.73
2023-02-03T18:22:49.088Z,8.70
2023-02-03T18:25:37.575Z,8.77
2023-02-03T18:28:27.732Z,8.77
2023-02-03T18:31:17.558Z,8.65
2023-02-03T18:34:06.598Z,8.72
2023-02-03T18:36:55.296Z,8.77
2023-02-03T18:39:43.797Z,8.69
2023-02-03T18:42:33.299Z,8.71
2023-02-03T18:45:23.143Z,7.98
2023-02-03T18:48:11.583Z,8.72
2023-02-03T18:51:00.213Z,8.64
2023-02-03T18:53:49.108Z,8.72
2023-02-03T18:56:37.794Z,8.66
2023-02-03T18:59:26.699Z,8.62
2023-02-03T19:02:16.613Z,8.63
2023-02-03T19:05:05.685Z,8.61
2023-02-03T19:07:54.161Z,8.49
2023-02-03T19:10:42.653Z,8.47
2023-02-03T19:13:31.112Z,8.52
2023-02-03T19:16:19.959Z,8.52
2023-02-03T19:19:09.848Z,8.48
2023-02-03T19:21:58.749Z,8.54
2023-02-03T19:24:47.234Z,8.52
2023-02-03T19:27:35.746Z,8.52
2023-02-03T19:30:24.277Z,8.52
2023-02-03T19:33:12.972Z,8.18
2023-02-03T19:36:02.853Z,8.52
2023-02-03T19:38:51.304Z,8.47
2023-02-03T19:41:42.079Z,8.46
2023-02-03T19:44:30.608Z,8.49
2023-02-03T19:47:19.252Z,8.51
2023-02-03T19:50:08.060Z,8.46
2023-02-03T19:52:57.909Z,8.48
2023-02-03T19:55:47.116Z,8.50
2023-02-03T19:58:35.636Z,8.50
2023-02-03T20:01:24.712Z,8.34
2023-02-03T20:04:13.212Z,8.41
2023-02-03T20:07:07.703Z,8.37
2023-02-03T20:09:57.474Z,8.07
2023-02-03T20:12:46.209Z,8.24
2023-02-03T20:15:34.673Z,8.17
2023-02-03T20:18:23.117Z,8.19
2023-02-03T20:21:11.650Z,8.18
2023-02-03T20:24:00.139Z,8.02
2023-02-03T20:26:49.938Z,8.25
2023-02-03T20:29:38.543Z,8.14
2023-02-03T20:32:27.137Z,8.17
2023-02-03T20:35:15.615Z,8.22
2023-02-03T20:38:04.108Z,8.13
2023-02-03T20:40:52.726Z,8.11
2023-02-03T20:43:44.122Z,8.11
2023-02-03T20:46:32.617Z,8.13
2023-02-03T20:49:22.307Z,8.15
2023-02-03T20:52:12.628Z,8.19
2023-02-03T20:55:01.379Z,8.09
2023-02-03T20:57:51.576Z,8.16
2023-02-03T21:00:41.530Z,8.25
2023-02-03T21:03:47.605Z,8.28
2023-02-03T21:06:36.417Z,8.28
2023-02-03T21:09:27.120Z,8.31
2023-02-03T21:12:16.207Z,8.29
2023-02-03T21:15:19.352Z,8.34
2023-02-03T21:18:25.173Z,8.33
2023-02-03T21:21:16.021Z,8.35
2023-02-03T21:24:21.228Z,8.40
2023-02-03T21:27:26.423Z,8.36
2023-02-03T21:30:28.079Z,8.37
2023-02-03T21:33:30.017Z,7.94
2023-02-03T21:36:20.011Z,8.46
2023-02-03T21:39:25.071Z,8.47
2023-02-03T21:42:42.128Z,8.37
2023-02-03T21:45:42.638Z,8.46
2023-02-03T21:48:34.909Z,8.30
2023-02-03T21:51:26.607Z,8.33
2023-02-03T21:54:24.861Z,8.40
2023-02-03T21:57:14.882Z,8.32
2023-02-03T22:00:03.433Z,8.36
2023-02-03T22:02:57.181Z,8.36
2023-02-03T22:05:47.689Z,7.84
2023-02-03T22:08:37.849Z,8.40
2023-02-03T22:11:28.420Z,8.43
2023-02-03T22:14:17.763Z,8.39
2023-02-03T22:17:06.312Z,8.42
2023-02-03T22:19:54.826Z,8.35
2023-02-03T22:22:44.633Z,8.42
2023-02-03T22:25:33.264Z,8.39
2023-02-03T22:28:21.809Z,8.36
2023-02-03T22:31:11.799Z,8.29
2023-02-03T22:34:00.281Z,8.31
2023-02-03T22:36:48.767Z,8.28
2023-02-03T22:39:38.574Z,8.36
2023-02-03T22:42:27.292Z,8.40
2023-02-03T22:45:16.366Z,8.40
2023-02-03T22:48:05.888Z,8.35
2023-02-03T22:50:54.378Z,8.40
2023-02-03T22:53:42.851Z,8.36
2023-02-03T22:56:32.960Z,8.42
2023-02-03T22:59:21.418Z,8.38
2023-02-03T23:02:09.853Z,8.40
2023-02-03T23:04:59.645Z,8.38
2023-02-03T23:07:48.551Z,8.21
2023-02-03T23:10:37.124Z,8.24
2023-02-03T23:13:28.759Z,8.25
2023-02-03T23:16:17.286Z,8.28
2023-02-03T23:19:05.831Z,8.29
2023-02-03T23:21:54.442Z,7.88
2023-02-03T23:24:42.961Z,8.21
2023-02-03T23:27:31.856Z,8.25
2023-02-03T23:30:21.911Z,8.27
2023-02-03T23:33:10.363Z,8.25
2023-02-03T23:35:57.820Z,8.23
2023-02-03T23:38:46.304Z,8.31
2023-02-03T23:41:34.908Z,8.18
2023-02-03T23:44:23.497Z,8.20
2023-02-03T23:47:13.429Z,8.22
2023-02-03T23:50:01.936Z,8.24
2023-02-03T23:52:50.455Z,8.11
2023-02-03T23:55:38.932Z,8.25
2023-02-03T23:58:27.475Z,8.21
